SRV160M LEPA-LEMH
Flight info
| Callsign | SRV160M |
|---|---|
| Flight time | 0h 24m |
| Altitude | 12000 |
| Route | MHN |
| Aircraft | A319/M-SDE3FGHIRWY/LB1 |
Departure
| Time | 2026-05-04 22:09 |
|---|---|
| Airport | Palma de Mallorca Airport (LEPA) |
Arrival
| Time | 2026-05-04 22:34 |
|---|---|
| Airport | Menorca Airport (LEMH) |
| Time | Latitude | Longitude | Altitude | Speed | Heading |
|---|---|---|---|---|---|
| 2026-05-04 21:53 | 39.55160 | 2.73012 | 30 ft | 0 kts | 196° |
| 2026-05-04 22:00 | 39.55176 | 2.73018 | 29 ft | 0 kts | 196° |
| 2026-05-04 22:01 | 39.55197 | 2.73024 | 27 ft | 3 kts | 179° |
| 2026-05-04 22:01 | 39.55208 | 2.73022 | 27 ft | 1 kts | 160° |
| 2026-05-04 22:01 | 39.55236 | 2.72970 | 30 ft | 11 kts | 83° |
| 2026-05-04 22:01 | 39.55213 | 2.72935 | 29 ft | 6 kts | 27° |
| 2026-05-04 22:02 | 39.55194 | 2.72917 | 29 ft | 0 kts | 52° |
| 2026-05-04 22:03 | 39.55195 | 2.72918 | 29 ft | 1 kts | 52° |
| 2026-05-04 22:04 | 39.55213 | 2.72948 | 30 ft | 7 kts | 53° |
| 2026-05-04 22:04 | 39.55246 | 2.73012 | 29 ft | 10 kts | 58° |
| 2026-05-04 22:04 | 39.55287 | 2.73044 | 30 ft | 3 kts | 10° |
| 2026-05-04 22:04 | 39.55307 | 2.73025 | 30 ft | 6 kts | 322° |
| 2026-05-04 22:05 | 39.55356 | 2.72983 | 30 ft | 10 kts | 336° |
| 2026-05-04 22:05 | 39.55427 | 2.73009 | 30 ft | 13 kts | 57° |
| 2026-05-04 22:05 | 39.55483 | 2.73126 | 30 ft | 17 kts | 59° |
| 2026-05-04 22:05 | 39.55546 | 2.73267 | 30 ft | 19 kts | 60° |
| 2026-05-04 22:06 | 39.55617 | 2.73424 | 30 ft | 18 kts | 58° |
| 2026-05-04 22:06 | 39.55684 | 2.73562 | 30 ft | 19 kts | 58° |
| 2026-05-04 22:06 | 39.55759 | 2.73718 | 30 ft | 20 kts | 58° |
| 2026-05-04 22:06 | 39.55836 | 2.73880 | 30 ft | 20 kts | 58° |
| 2026-05-04 22:07 | 39.55909 | 2.74033 | 30 ft | 20 kts | 58° |
| 2026-05-04 22:07 | 39.55977 | 2.74176 | 30 ft | 16 kts | 58° |
| 2026-05-04 22:07 | 39.56033 | 2.74296 | 30 ft | 13 kts | 59° |
| 2026-05-04 22:07 | 39.56077 | 2.74390 | 30 ft | 11 kts | 59° |
| 2026-05-04 22:08 | 39.56134 | 2.74461 | 30 ft | 13 kts | 7° |
| 2026-05-04 22:08 | 39.56219 | 2.74402 | 30 ft | 16 kts | 324° |
| 2026-05-04 22:08 | 39.56242 | 2.74288 | 30 ft | 16 kts | 234° |
| 2026-05-04 22:08 | 39.56139 | 2.74073 | 30 ft | 58 kts | 238° |
| 2026-05-04 22:09 | 39.55805 | 2.73366 | 30 ft | 122 kts | 239° |
| 2026-05-04 22:09 | 39.55278 | 2.72252 | 116 ft | 161 kts | 238° |
| 2026-05-04 22:09 | 39.54696 | 2.71014 | 784 ft | 155 kts | 238° |
| 2026-05-04 22:09 | 39.54159 | 2.69889 | 1742 ft | 140 kts | 237° |
| 2026-05-04 22:10 | 39.53628 | 2.68795 | 2329 ft | 150 kts | 238° |
| 2026-05-04 22:10 | 39.53042 | 2.67593 | 2745 ft | 171 kts | 238° |
| 2026-05-04 22:10 | 39.52387 | 2.66265 | 3511 ft | 177 kts | 237° |
| 2026-05-04 22:10 | 39.51724 | 2.64943 | 4537 ft | 174 kts | 238° |
| 2026-05-04 22:11 | 39.51040 | 2.63556 | 5176 ft | 193 kts | 239° |
| 2026-05-04 22:11 | 39.50201 | 2.62078 | 5788 ft | 213 kts | 226° |
| 2026-05-04 22:11 | 39.48951 | 2.60955 | 6526 ft | 231 kts | 202° |
| 2026-05-04 22:11 | 39.47273 | 2.60757 | 7088 ft | 260 kts | 172° |
| 2026-05-04 22:12 | 39.45555 | 2.61748 | 7704 ft | 285 kts | 143° |
| 2026-05-04 22:12 | 39.44320 | 2.63795 | 8617 ft | 297 kts | 116° |
| 2026-05-04 22:12 | 39.43790 | 2.66419 | 9535 ft | 308 kts | 97° |
| 2026-05-04 22:12 | 39.43658 | 2.69214 | 10366 ft | 317 kts | 93° |
| 2026-05-04 22:13 | 39.43599 | 2.72179 | 10721 ft | 342 kts | 92° |
| 2026-05-04 22:13 | 39.43562 | 2.75372 | 11048 ft | 364 kts | 92° |
| 2026-05-04 22:13 | 39.43526 | 2.78689 | 11718 ft | 373 kts | 92° |
| 2026-05-04 22:13 | 39.43487 | 2.82075 | 11966 ft | 377 kts | 92° |
| 2026-05-04 22:14 | 39.43449 | 2.85416 | 11994 ft | 376 kts | 92° |
| 2026-05-04 22:14 | 39.43402 | 2.88802 | 11990 ft | 376 kts | 93° |
| 2026-05-04 22:14 | 39.43350 | 2.92181 | 11995 ft | 376 kts | 93° |
| 2026-05-04 22:14 | 39.43296 | 2.95558 | 11992 ft | 376 kts | 93° |
| 2026-05-04 22:15 | 39.43243 | 2.98943 | 11989 ft | 376 kts | 94° |
| 2026-05-04 22:15 | 39.43167 | 3.02320 | 11989 ft | 376 kts | 93° |
| 2026-05-04 22:15 | 39.43112 | 3.05699 | 11988 ft | 376 kts | 93° |
| 2026-05-04 22:15 | 39.43058 | 3.09080 | 11988 ft | 376 kts | 93° |
| 2026-05-04 22:16 | 39.43276 | 3.12445 | 11989 ft | 378 kts | 76° |
| 2026-05-04 22:16 | 39.44348 | 3.15529 | 11991 ft | 378 kts | 54° |
| 2026-05-04 22:16 | 39.45914 | 3.18253 | 11990 ft | 377 kts | 51° |
| 2026-05-04 22:16 | 39.47511 | 3.20944 | 11989 ft | 377 kts | 51° |
| 2026-05-04 22:17 | 39.49107 | 3.23636 | 11988 ft | 376 kts | 51° |
| 2026-05-04 22:17 | 39.50696 | 3.26331 | 11986 ft | 376 kts | 51° |
| 2026-05-04 22:17 | 39.52279 | 3.29030 | 11988 ft | 376 kts | 51° |
| 2026-05-04 22:17 | 39.53840 | 3.31701 | 11990 ft | 375 kts | 51° |
| 2026-05-04 22:18 | 39.55416 | 3.34404 | 11990 ft | 376 kts | 51° |
| 2026-05-04 22:18 | 39.56993 | 3.37112 | 11984 ft | 375 kts | 51° |
| 2026-05-04 22:18 | 39.58566 | 3.39814 | 11986 ft | 376 kts | 51° |
| 2026-05-04 22:18 | 39.60140 | 3.42523 | 11984 ft | 375 kts | 51° |
| 2026-05-04 22:19 | 39.61697 | 3.45202 | 11987 ft | 376 kts | 51° |
| 2026-05-04 22:19 | 39.63271 | 3.47911 | 11984 ft | 375 kts | 52° |
| 2026-05-04 22:19 | 39.64842 | 3.50619 | 11987 ft | 375 kts | 52° |
| 2026-05-04 22:19 | 39.66414 | 3.53329 | 11988 ft | 375 kts | 52° |
| 2026-05-04 22:20 | 39.67984 | 3.56039 | 11987 ft | 375 kts | 52° |
| 2026-05-04 22:20 | 39.69550 | 3.58745 | 11984 ft | 375 kts | 52° |
| 2026-05-04 22:20 | 39.71120 | 3.61459 | 11986 ft | 374 kts | 52° |
| 2026-05-04 22:20 | 39.72684 | 3.64165 | 11983 ft | 375 kts | 52° |
| 2026-05-04 22:21 | 39.74230 | 3.66842 | 11983 ft | 375 kts | 52° |
| 2026-05-04 22:21 | 39.75795 | 3.69555 | 11970 ft | 375 kts | 52° |
| 2026-05-04 22:21 | 39.77360 | 3.72270 | 11741 ft | 374 kts | 52° |
| 2026-05-04 22:21 | 39.78923 | 3.74982 | 11193 ft | 376 kts | 52° |
| 2026-05-04 22:22 | 39.80501 | 3.77724 | 10443 ft | 381 kts | 52° |
| 2026-05-04 22:22 | 39.82071 | 3.80454 | 10151 ft | 370 kts | 52° |
| 2026-05-04 22:22 | 39.83581 | 3.83086 | 10000 ft | 356 kts | 52° |
| 2026-05-04 22:22 | 39.84568 | 3.84806 | 9905 ft | 346 kts | 52° |
| 2026-05-04 22:23 | 39.85980 | 3.87269 | 9787 ft | 333 kts | 52° |
| 2026-05-04 22:23 | 39.87337 | 3.89637 | 9645 ft | 320 kts | 52° |
| 2026-05-04 22:23 | 39.88657 | 3.91886 | 9284 ft | 316 kts | 46° |
| 2026-05-04 22:23 | 39.90367 | 3.93610 | 8851 ft | 309 kts | 23° |
| 2026-05-04 22:24 | 39.92381 | 3.94505 | 8425 ft | 305 kts | 13° |
| 2026-05-04 22:24 | 39.94367 | 3.95395 | 8183 ft | 299 kts | 18° |
| 2026-05-04 22:24 | 39.96265 | 3.96501 | 7842 ft | 299 kts | 24° |
| 2026-05-04 22:24 | 39.98073 | 3.97842 | 7472 ft | 299 kts | 30° |
| 2026-05-04 22:25 | 39.99767 | 3.99408 | 7123 ft | 297 kts | 36° |
| 2026-05-04 22:25 | 40.01331 | 4.01171 | 6766 ft | 297 kts | 42° |
| 2026-05-04 22:25 | 40.02750 | 4.03113 | 6429 ft | 295 kts | 48° |
| 2026-05-04 22:25 | 40.04015 | 4.05210 | 6058 ft | 294 kts | 54° |
| 2026-05-04 22:26 | 40.05120 | 4.07445 | 5712 ft | 292 kts | 60° |
| 2026-05-04 22:26 | 40.06053 | 4.09788 | 5356 ft | 290 kts | 66° |
| 2026-05-04 22:26 | 40.06809 | 4.12215 | 5019 ft | 287 kts | 72° |
| 2026-05-04 22:26 | 40.07376 | 4.14673 | 4864 ft | 277 kts | 77° |
| 2026-05-04 22:27 | 40.07760 | 4.17084 | 4752 ft | 264 kts | 83° |
| 2026-05-04 22:27 | 40.07974 | 4.19362 | 4645 ft | 248 kts | 88° |
| 2026-05-04 22:27 | 40.08046 | 4.21545 | 4512 ft | 233 kts | 93° |
| 2026-05-04 22:27 | 40.07848 | 4.23559 | 4321 ft | 216 kts | 118° |
| 2026-05-04 22:28 | 40.06962 | 4.24993 | 4086 ft | 198 kts | 154° |
| 2026-05-04 22:28 | 40.05727 | 4.25561 | 3882 ft | 182 kts | 178° |
| 2026-05-04 22:28 | 40.04514 | 4.25583 | 3675 ft | 168 kts | 189° |
| 2026-05-04 22:28 | 40.03393 | 4.25407 | 3463 ft | 157 kts | 193° |
| 2026-05-04 22:29 | 40.02346 | 4.25188 | 3263 ft | 148 kts | 194° |
| 2026-05-04 22:29 | 40.01356 | 4.24985 | 3078 ft | 139 kts | 194° |
| 2026-05-04 22:29 | 40.00433 | 4.24793 | 2898 ft | 131 kts | 194° |
| 2026-05-04 22:29 | 39.99513 | 4.24599 | 2732 ft | 135 kts | 193° |
| 2026-05-04 22:30 | 39.98601 | 4.24414 | 2561 ft | 132 kts | 193° |
| 2026-05-04 22:30 | 39.97708 | 4.24228 | 2399 ft | 123 kts | 193° |
| 2026-05-04 22:30 | 39.96911 | 4.24064 | 2238 ft | 118 kts | 194° |
| 2026-05-04 22:30 | 39.96094 | 4.23893 | 2079 ft | 119 kts | 194° |
| 2026-05-04 22:31 | 39.95288 | 4.23727 | 1913 ft | 116 kts | 193° |
| 2026-05-04 22:31 | 39.94484 | 4.23560 | 1757 ft | 119 kts | 193° |
| 2026-05-04 22:31 | 39.93665 | 4.23390 | 1603 ft | 118 kts | 192° |
| 2026-05-04 22:31 | 39.92864 | 4.23227 | 1442 ft | 114 kts | 192° |
| 2026-05-04 22:32 | 39.92075 | 4.23063 | 1290 ft | 118 kts | 192° |
| 2026-05-04 22:32 | 39.91244 | 4.22892 | 1118 ft | 118 kts | 193° |
| 2026-05-04 22:32 | 39.90438 | 4.22725 | 979 ft | 121 kts | 193° |
| 2026-05-04 22:32 | 39.89562 | 4.22545 | 794 ft | 126 kts | 192° |
| 2026-05-04 22:33 | 39.88729 | 4.22385 | 631 ft | 122 kts | 192° |
| 2026-05-04 22:33 | 39.87858 | 4.22184 | 484 ft | 128 kts | 191° |
| 2026-05-04 22:33 | 39.86992 | 4.22018 | 320 ft | 121 kts | 192° |
| 2026-05-04 22:33 | 39.86277 | 4.21867 | 303 ft | 80 kts | 189° |
| 2026-05-04 22:34 | 39.85890 | 4.21788 | 300 ft | 41 kts | 189° |
| 2026-05-04 22:34 | 39.85663 | 4.21749 | 294 ft | 15 kts | 179° |
| 2026-05-04 22:34 | 39.85543 | 4.21781 | 291 ft | 21 kts | 164° |
| 2026-05-04 22:34 | 39.85460 | 4.21819 | 284 ft | 0 kts | 159° |
| 2026-05-04 22:35 | 39.85455 | 4.21822 | 288 ft | 3 kts | 159° |
| 2026-05-04 22:35 | 39.85416 | 4.21845 | 286 ft | 9 kts | 146° |
| 2026-05-04 22:35 | 39.85417 | 4.21924 | 284 ft | 11 kts | 38° |
| 2026-05-04 22:36 | 39.85494 | 4.21946 | 285 ft | 13 kts | 8° |
| 2026-05-04 22:36 | 39.85594 | 4.21966 | 288 ft | 17 kts | 9° |
| 2026-05-04 22:36 | 39.85722 | 4.21992 | 291 ft | 20 kts | 8° |
| 2026-05-04 22:36 | 39.85861 | 4.22019 | 295 ft | 20 kts | 10° |
| 2026-05-04 22:37 | 39.86002 | 4.22050 | 296 ft | 22 kts | 8° |
| 2026-05-04 22:37 | 39.86155 | 4.22080 | 294 ft | 22 kts | 9° |
| 2026-05-04 22:37 | 39.86306 | 4.22113 | 296 ft | 22 kts | 11° |
| 2026-05-04 22:37 | 39.86450 | 4.22143 | 296 ft | 16 kts | 9° |
| 2026-05-04 22:38 | 39.86548 | 4.22189 | 295 ft | 14 kts | 70° |
| 2026-05-04 22:38 | 39.86531 | 4.22305 | 292 ft | 11 kts | 126° |
| 2026-05-04 22:38 | 39.86480 | 4.22328 | 288 ft | 4 kts | 146° |
| 2026-05-04 22:38 | 39.86472 | 4.22364 | 287 ft | 6 kts | 99° |
| 2026-05-04 22:39 | 39.86468 | 4.22404 | 292 ft | 0 kts | 100° |